sensor_id;sensor_type;location;lat;lon;timestamp;P1;durP1;ratioP1;P2;durP2;ratioP2
11481;SDS011;5797;51.662;6.748;2022-09-27T00:00:12;5.73;;;1.60;;
11481;SDS011;5797;51.662;6.748;2022-09-27T00:03:00;9.47;;;1.67;;
11481;SDS011;5797;51.662;6.748;2022-09-27T00:05:48;4.53;;;1.57;;
11481;SDS011;5797;51.662;6.748;2022-09-27T00:08:36;6.00;;;1.80;;
11481;SDS011;5797;51.662;6.748;2022-09-27T00:11:24;9.73;;;1.73;;
11481;SDS011;5797;51.662;6.748;2022-09-27T00:14:14;4.33;;;1.43;;
11481;SDS011;5797;51.662;6.748;2022-09-27T00:17:01;5.33;;;2.13;;
11481;SDS011;5797;51.662;6.748;2022-09-27T00:19:48;6.13;;;1.37;;
11481;SDS011;5797;51.662;6.748;2022-09-27T00:22:36;8.97;;;2.10;;
11481;SDS011;5797;51.662;6.748;2022-09-27T00:25:25;4.63;;;1.43;;
11481;SDS011;5797;51.662;6.748;2022-09-27T00:28:12;10.97;;;1.67;;
11481;SDS011;5797;51.662;6.748;2022-09-27T00:31:00;1.30;;;1.20;;
11481;SDS011;5797;51.662;6.748;2022-09-27T00:33:48;5.93;;;1.30;;
11481;SDS011;5797;51.662;6.748;2022-09-27T00:36:36;5.67;;;1.83;;
11481;SDS011;5797;51.662;6.748;2022-09-27T00:39:23;3.93;;;1.30;;
11481;SDS011;5797;51.662;6.748;2022-09-27T00:42:13;6.90;;;1.50;;
11481;SDS011;5797;51.662;6.748;2022-09-27T00:45:05;8.50;;;1.90;;
11481;SDS011;5797;51.662;6.748;2022-09-27T00:47:56;4.30;;;1.73;;
11481;SDS011;5797;51.662;6.748;2022-09-27T00:50:46;7.07;;;2.07;;
11481;SDS011;5797;51.662;6.748;2022-09-27T00:53:35;8.83;;;2.30;;
11481;SDS011;5797;51.662;6.748;2022-09-27T00:56:25;6.63;;;2.57;;
11481;SDS011;5797;51.662;6.748;2022-09-27T00:59:18;11.27;;;3.30;;
11481;SDS011;5797;51.662;6.748;2022-09-27T01:02:07;4.37;;;2.70;;
11481;SDS011;5797;51.662;6.748;2022-09-27T01:04:54;7.40;;;3.37;;
11481;SDS011;5797;51.662;6.748;2022-09-27T01:07:41;9.40;;;3.90;;
11481;SDS011;5797;51.662;6.748;2022-09-27T01:10:30;6.73;;;4.03;;
11481;SDS011;5797;51.662;6.748;2022-09-27T01:13:25;10.80;;;4.37;;
11481;SDS011;5797;51.662;6.748;2022-09-27T01:16:19;9.67;;;3.90;;
11481;SDS011;5797;51.662;6.748;2022-09-27T01:19:13;9.63;;;4.30;;
11481;SDS011;5797;51.662;6.748;2022-09-27T01:22:11;11.93;;;4.10;;
11481;SDS011;5797;51.662;6.748;2022-09-27T01:25:13;8.77;;;3.50;;
11481;SDS011;5797;51.662;6.748;2022-09-27T01:28:11;7.80;;;4.00;;
11481;SDS011;5797;51.662;6.748;2022-09-27T01:31:07;8.50;;;3.87;;
11481;SDS011;5797;51.662;6.748;2022-09-27T01:34:00;6.43;;;3.37;;
11481;SDS011;5797;51.662;6.748;2022-09-27T01:36:51;10.93;;;3.83;;
11481;SDS011;5797;51.662;6.748;2022-09-27T01:39:44;8.37;;;3.50;;
11481;SDS011;5797;51.662;6.748;2022-09-27T01:42:48;5.43;;;2.80;;
11481;SDS011;5797;51.662;6.748;2022-09-27T01:45:42;6.87;;;3.20;;
11481;SDS011;5797;51.662;6.748;2022-09-27T01:48:41;7.33;;;2.73;;
11481;SDS011;5797;51.662;6.748;2022-09-27T01:51:38;12.10;;;3.57;;
11481;SDS011;5797;51.662;6.748;2022-09-27T01:54:31;5.20;;;2.97;;
11481;SDS011;5797;51.662;6.748;2022-09-27T01:57:41;5.40;;;2.60;;
11481;SDS011;5797;51.662;6.748;2022-09-27T02:00:36;6.23;;;2.90;;
11481;SDS011;5797;51.662;6.748;2022-09-27T02:03:27;6.97;;;3.00;;
11481;SDS011;5797;51.662;6.748;2022-09-27T02:06:58;6.90;;;3.10;;
11481;SDS011;5797;51.662;6.748;2022-09-27T02:09:50;9.70;;;2.87;;
11481;SDS011;5797;51.662;6.748;2022-09-27T02:12:45;6.83;;;2.40;;
11481;SDS011;5797;51.662;6.748;2022-09-27T02:15:37;10.40;;;2.73;;
11481;SDS011;5797;51.662;6.748;2022-09-27T02:18:48;2.60;;;1.90;;
11481;SDS011;5797;51.662;6.748;2022-09-27T02:21:40;5.03;;;2.40;;
11481;SDS011;5797;51.662;6.748;2022-09-27T02:24:31;5.63;;;2.10;;
11481;SDS011;5797;51.662;6.748;2022-09-27T02:27:25;6.03;;;2.20;;
11481;SDS011;5797;51.662;6.748;2022-09-27T02:30:15;7.27;;;1.90;;
11481;SDS011;5797;51.662;6.748;2022-09-27T02:33:08;4.57;;;2.10;;
11481;SDS011;5797;51.662;6.748;2022-09-27T02:35:55;5.17;;;2.17;;
11481;SDS011;5797;51.662;6.748;2022-09-27T02:38:43;2.87;;;2.07;;
11481;SDS011;5797;51.662;6.748;2022-09-27T02:41:34;8.20;;;2.40;;
11481;SDS011;5797;51.662;6.748;2022-09-27T02:44:21;5.57;;;2.10;;
11481;SDS011;5797;51.662;6.748;2022-09-27T02:47:23;8.97;;;2.47;;
11481;SDS011;5797;51.662;6.748;2022-09-27T02:50:35;4.97;;;1.97;;
11481;SDS011;5797;51.662;6.748;2022-09-27T02:53:54;3.47;;;1.87;;
11481;SDS011;5797;51.662;6.748;2022-09-27T02:57:12;4.87;;;2.50;;
11481;SDS011;5797;51.662;6.748;2022-09-27T03:04:03;7.03;;;1.73;;
11481;SDS011;5797;51.662;6.748;2022-09-27T03:06:54;3.37;;;1.77;;
11481;SDS011;5797;51.662;6.748;2022-09-27T03:09:43;1.73;;;1.63;;
11481;SDS011;5797;51.662;6.748;2022-09-27T03:12:37;10.03;;;2.37;;
11481;SDS011;5797;51.662;6.748;2022-09-27T03:15:25;5.00;;;1.97;;
11481;SDS011;5797;51.662;6.748;2022-09-27T03:18:18;2.80;;;1.67;;
11481;SDS011;5797;51.662;6.748;2022-09-27T03:21:14;2.03;;;1.70;;
11481;SDS011;5797;51.662;6.748;2022-09-27T03:24:02;4.37;;;2.17;;
11481;SDS011;5797;51.662;6.748;2022-09-27T03:26:50;9.30;;;2.17;;
11481;SDS011;5797;51.662;6.748;2022-09-27T03:29:39;4.43;;;2.13;;
11481;SDS011;5797;51.662;6.748;2022-09-27T03:32:27;6.73;;;2.20;;
11481;SDS011;5797;51.662;6.748;2022-09-27T03:35:34;7.57;;;2.00;;
11481;SDS011;5797;51.662;6.748;2022-09-27T03:38:22;5.97;;;2.17;;
11481;SDS011;5797;51.662;6.748;2022-09-27T03:41:09;9.03;;;2.73;;
11481;SDS011;5797;51.662;6.748;2022-09-27T03:43:57;6.20;;;2.43;;
11481;SDS011;5797;51.662;6.748;2022-09-27T03:46:46;12.77;;;2.70;;
11481;SDS011;5797;51.662;6.748;2022-09-27T03:49:33;8.30;;;2.47;;
11481;SDS011;5797;51.662;6.748;2022-09-27T03:52:20;4.13;;;2.20;;
11481;SDS011;5797;51.662;6.748;2022-09-27T03:55:08;3.53;;;2.23;;
11481;SDS011;5797;51.662;6.748;2022-09-27T03:57:56;5.87;;;2.60;;
11481;SDS011;5797;51.662;6.748;2022-09-27T04:00:44;3.57;;;2.67;;
11481;SDS011;5797;51.662;6.748;2022-09-27T04:03:33;3.80;;;2.40;;
11481;SDS011;5797;51.662;6.748;2022-09-27T04:06:39;6.73;;;2.60;;
11481;SDS011;5797;51.662;6.748;2022-09-27T04:09:26;6.43;;;2.47;;
11481;SDS011;5797;51.662;6.748;2022-09-27T04:12:18;4.50;;;1.90;;
11481;SDS011;5797;51.662;6.748;2022-09-27T04:15:05;4.47;;;1.80;;
11481;SDS011;5797;51.662;6.748;2022-09-27T04:18:25;5.03;;;2.00;;
11481;SDS011;5797;51.662;6.748;2022-09-27T04:21:45;3.73;;;2.00;;
11481;SDS011;5797;51.662;6.748;2022-09-27T04:24:34;3.73;;;1.70;;
11481;SDS011;5797;51.662;6.748;2022-09-27T04:27:44;4.83;;;1.90;;
11481;SDS011;5797;51.662;6.748;2022-09-27T04:30:33;5.27;;;2.00;;
11481;SDS011;5797;51.662;6.748;2022-09-27T04:33:29;4.53;;;2.00;;
11481;SDS011;5797;51.662;6.748;2022-09-27T04:36:22;3.23;;;2.07;;
11481;SDS011;5797;51.662;6.748;2022-09-27T04:39:30;4.00;;;1.70;;
11481;SDS011;5797;51.662;6.748;2022-09-27T04:42:18;2.47;;;1.87;;
11481;SDS011;5797;51.662;6.748;2022-09-27T04:45:06;6.30;;;2.13;;
11481;SDS011;5797;51.662;6.748;2022-09-27T04:47:54;8.63;;;1.90;;
11481;SDS011;5797;51.662;6.748;2022-09-27T04:50:41;4.83;;;2.03;;
11481;SDS011;5797;51.662;6.748;2022-09-27T04:53:28;6.37;;;1.80;;
11481;SDS011;5797;51.662;6.748;2022-09-27T04:56:18;2.27;;;1.67;;
11481;SDS011;5797;51.662;6.748;2022-09-27T04:59:05;9.93;;;2.60;;
11481;SDS011;5797;51.662;6.748;2022-09-27T05:01:54;3.20;;;1.67;;
11481;SDS011;5797;51.662;6.748;2022-09-27T05:04:59;5.57;;;1.80;;
11481;SDS011;5797;51.662;6.748;2022-09-27T05:07:53;5.83;;;1.67;;
11481;SDS011;5797;51.662;6.748;2022-09-27T05:11:01;6.13;;;1.70;;
11481;SDS011;5797;51.662;6.748;2022-09-27T05:13:50;7.13;;;1.70;;
11481;SDS011;5797;51.662;6.748;2022-09-27T05:16:38;2.87;;;1.37;;
11481;SDS011;5797;51.662;6.748;2022-09-27T05:19:44;10.40;;;2.63;;
11481;SDS011;5797;51.662;6.748;2022-09-27T05:22:46;6.27;;;1.80;;
11481;SDS011;5797;51.662;6.748;2022-09-27T05:25:33;3.03;;;1.40;;
11481;SDS011;5797;51.662;6.748;2022-09-27T05:28:21;3.00;;;1.40;;
11481;SDS011;5797;51.662;6.748;2022-09-27T05:31:11;8.90;;;1.77;;
11481;SDS011;5797;51.662;6.748;2022-09-27T05:34:00;4.30;;;1.83;;
11481;SDS011;5797;51.662;6.748;2022-09-27T05:36:54;2.23;;;1.40;;
11481;SDS011;5797;51.662;6.748;2022-09-27T05:39:41;6.10;;;1.73;;
11481;SDS011;5797;51.662;6.748;2022-09-27T05:42:28;8.07;;;1.53;;
11481;SDS011;5797;51.662;6.748;2022-09-27T05:45:16;2.97;;;1.43;;
11481;SDS011;5797;51.662;6.748;2022-09-27T05:48:05;7.40;;;1.80;;
11481;SDS011;5797;51.662;6.748;2022-09-27T05:51:02;4.33;;;1.50;;
11481;SDS011;5797;51.662;6.748;2022-09-27T05:53:52;4.57;;;2.00;;
11481;SDS011;5797;51.662;6.748;2022-09-27T05:56:45;2.40;;;1.17;;
11481;SDS011;5797;51.662;6.748;2022-09-27T05:59:50;2.83;;;1.80;;
11481;SDS011;5797;51.662;6.748;2022-09-27T06:02:37;5.20;;;1.60;;
11481;SDS011;5797;51.662;6.748;2022-09-27T06:05:27;2.00;;;1.53;;
11481;SDS011;5797;51.662;6.748;2022-09-27T06:08:50;5.10;;;2.10;;
11481;SDS011;5797;51.662;6.748;2022-09-27T06:11:39;13.23;;;1.60;;
11481;SDS011;5797;51.662;6.748;2022-09-27T06:14:30;1.60;;;1.23;;
11481;SDS011;5797;51.662;6.748;2022-09-27T06:17:42;6.53;;;1.87;;
11481;SDS011;5797;51.662;6.748;2022-09-27T06:20:35;2.97;;;1.50;;
11481;SDS011;5797;51.662;6.748;2022-09-27T06:23:22;4.50;;;1.40;;
11481;SDS011;5797;51.662;6.748;2022-09-27T06:26:11;2.90;;;1.47;;
11481;SDS011;5797;51.662;6.748;2022-09-27T06:29:09;1.50;;;1.10;;
11481;SDS011;5797;51.662;6.748;2022-09-27T06:32:02;3.10;;;1.40;;
11481;SDS011;5797;51.662;6.748;2022-09-27T06:34:59;6.43;;;1.50;;
11481;SDS011;5797;51.662;6.748;2022-09-27T06:37:51;2.03;;;1.20;;
11481;SDS011;5797;51.662;6.748;2022-09-27T06:40:39;2.33;;;1.20;;
11481;SDS011;5797;51.662;6.748;2022-09-27T06:43:38;3.73;;;1.00;;
11481;SDS011;5797;51.662;6.748;2022-09-27T06:46:37;4.50;;;1.10;;
11481;SDS011;5797;51.662;6.748;2022-09-27T06:49:36;3.67;;;1.37;;
11481;SDS011;5797;51.662;6.748;2022-09-27T06:52:24;2.50;;;1.13;;
11481;SDS011;5797;51.662;6.748;2022-09-27T06:55:13;2.23;;;1.30;;
11481;SDS011;5797;51.662;6.748;2022-09-27T06:58:01;7.53;;;1.70;;
11481;SDS011;5797;51.662;6.748;2022-09-27T07:01:26;2.23;;;1.30;;
11481;SDS011;5797;51.662;6.748;2022-09-27T07:04:29;5.80;;;1.13;;
11481;SDS011;5797;51.662;6.748;2022-09-27T07:07:43;5.37;;;1.40;;
11481;SDS011;5797;51.662;6.748;2022-09-27T07:10:34;5.13;;;1.27;;
11481;SDS011;5797;51.662;6.748;2022-09-27T07:13:22;5.23;;;1.40;;
11481;SDS011;5797;51.662;6.748;2022-09-27T07:16:11;3.57;;;1.20;;
11481;SDS011;5797;51.662;6.748;2022-09-27T07:18:59;4.77;;;1.40;;
11481;SDS011;5797;51.662;6.748;2022-09-27T07:21:46;2.20;;;1.00;;
11481;SDS011;5797;51.662;6.748;2022-09-27T07:24:33;1.53;;;0.70;;
11481;SDS011;5797;51.662;6.748;2022-09-27T07:27:24;8.13;;;1.40;;
11481;SDS011;5797;51.662;6.748;2022-09-27T07:30:12;4.40;;;1.33;;
11481;SDS011;5797;51.662;6.748;2022-09-27T07:33:02;11.37;;;1.40;;
11481;SDS011;5797;51.662;6.748;2022-09-27T07:35:51;2.37;;;1.30;;
11481;SDS011;5797;51.662;6.748;2022-09-27T07:38:38;3.13;;;1.20;;
11481;SDS011;5797;51.662;6.748;2022-09-27T07:41:25;5.77;;;1.30;;
11481;SDS011;5797;51.662;6.748;2022-09-27T07:44:14;4.87;;;1.33;;
11481;SDS011;5797;51.662;6.748;2022-09-27T07:47:24;3.17;;;1.33;;
11481;SDS011;5797;51.662;6.748;2022-09-27T07:50:23;1.53;;;0.80;;
11481;SDS011;5797;51.662;6.748;2022-09-27T07:53:15;4.80;;;1.43;;
11481;SDS011;5797;51.662;6.748;2022-09-27T07:56:11;2.03;;;1.00;;
11481;SDS011;5797;51.662;6.748;2022-09-27T07:58:58;5.30;;;1.20;;
11481;SDS011;5797;51.662;6.748;2022-09-27T08:01:47;1.90;;;1.10;;
11481;SDS011;5797;51.662;6.748;2022-09-27T08:04:34;5.30;;;1.30;;
11481;SDS011;5797;51.662;6.748;2022-09-27T08:07:22;5.00;;;1.80;;
11481;SDS011;5797;51.662;6.748;2022-09-27T08:10:12;1.10;;;1.00;;
11481;SDS011;5797;51.662;6.748;2022-09-27T08:13:00;1.90;;;1.20;;
11481;SDS011;5797;51.662;6.748;2022-09-27T08:15:48;3.47;;;1.63;;
11481;SDS011;5797;51.662;6.748;2022-09-27T08:18:38;3.83;;;1.53;;
11481;SDS011;5797;51.662;6.748;2022-09-27T08:21:44;1.23;;;1.00;;
11481;SDS011;5797;51.662;6.748;2022-09-27T08:24:45;1.90;;;1.23;;
11481;SDS011;5797;51.662;6.748;2022-09-27T08:27:53;2.67;;;1.00;;
11481;SDS011;5797;51.662;6.748;2022-09-27T08:30:52;2.67;;;1.43;;
11481;SDS011;5797;51.662;6.748;2022-09-27T08:33:40;4.87;;;1.43;;
11481;SDS011;5797;51.662;6.748;2022-09-27T08:36:29;5.80;;;1.30;;
11481;SDS011;5797;51.662;6.748;2022-09-27T08:39:20;1.10;;;1.00;;
11481;SDS011;5797;51.662;6.748;2022-09-27T08:42:12;2.33;;;1.10;;
11481;SDS011;5797;51.662;6.748;2022-09-27T08:45:07;3.80;;;1.60;;
11481;SDS011;5797;51.662;6.748;2022-09-27T08:47:57;4.20;;;1.43;;
11481;SDS011;5797;51.662;6.748;2022-09-27T08:50:48;5.80;;;1.40;;
11481;SDS011;5797;51.662;6.748;2022-09-27T08:53:36;2.87;;;1.43;;
11481;SDS011;5797;51.662;6.748;2022-09-27T08:56:44;2.33;;;1.50;;
11481;SDS011;5797;51.662;6.748;2022-09-27T08:59:34;2.63;;;1.33;;
11481;SDS011;5797;51.662;6.748;2022-09-27T09:02:25;6.17;;;1.87;;
11481;SDS011;5797;51.662;6.748;2022-09-27T09:05:13;5.30;;;1.60;;
11481;SDS011;5797;51.662;6.748;2022-09-27T09:08:14;4.43;;;1.50;;
11481;SDS011;5797;51.662;6.748;2022-09-27T09:11:12;2.47;;;1.57;;
11481;SDS011;5797;51.662;6.748;2022-09-27T09:14:27;5.60;;;2.00;;
11481;SDS011;5797;51.662;6.748;2022-09-27T09:17:27;2.20;;;1.70;;
11481;SDS011;5797;51.662;6.748;2022-09-27T09:20:57;2.97;;;1.80;;
11481;SDS011;5797;51.662;6.748;2022-09-27T09:23:58;2.87;;;1.93;;
11481;SDS011;5797;51.662;6.748;2022-09-27T09:26:56;6.27;;;2.63;;
11481;SDS011;5797;51.662;6.748;2022-09-27T09:33:12;3.03;;;1.97;;
11481;SDS011;5797;51.662;6.748;2022-09-27T09:36:09;2.73;;;2.00;;
11481;SDS011;5797;51.662;6.748;2022-09-27T09:39:12;4.97;;;2.63;;
11481;SDS011;5797;51.662;6.748;2022-09-27T09:42:03;3.47;;;2.40;;
11481;SDS011;5797;51.662;6.748;2022-09-27T09:44:54;4.93;;;2.70;;
11481;SDS011;5797;51.662;6.748;2022-09-27T09:47:50;5.90;;;2.77;;
11481;SDS011;5797;51.662;6.748;2022-09-27T09:50:41;5.63;;;2.33;;
11481;SDS011;5797;51.662;6.748;2022-09-27T09:53:35;3.20;;;2.63;;
11481;SDS011;5797;51.662;6.748;2022-09-27T09:56:28;5.97;;;2.63;;
11481;SDS011;5797;51.662;6.748;2022-09-27T09:59:18;2.83;;;2.53;;
11481;SDS011;5797;51.662;6.748;2022-09-27T10:02:16;3.20;;;2.67;;
11481;SDS011;5797;51.662;6.748;2022-09-27T10:05:16;5.97;;;3.03;;
11481;SDS011;5797;51.662;6.748;2022-09-27T10:08:10;2.87;;;2.53;;
11481;SDS011;5797;51.662;6.748;2022-09-27T10:11:04;4.63;;;3.47;;
11481;SDS011;5797;51.662;6.748;2022-09-27T10:14:06;4.07;;;2.97;;
11481;SDS011;5797;51.662;6.748;2022-09-27T10:16:57;4.43;;;2.83;;
11481;SDS011;5797;51.662;6.748;2022-09-27T10:19:45;4.07;;;3.40;;
11481;SDS011;5797;51.662;6.748;2022-09-27T10:22:34;3.30;;;3.00;;
11481;SDS011;5797;51.662;6.748;2022-09-27T10:25:44;3.83;;;3.10;;
11481;SDS011;5797;51.662;6.748;2022-09-27T10:28:51;5.43;;;3.23;;
11481;SDS011;5797;51.662;6.748;2022-09-27T10:31:54;6.17;;;2.73;;
11481;SDS011;5797;51.662;6.748;2022-09-27T10:34:49;4.37;;;3.27;;
11481;SDS011;5797;51.662;6.748;2022-09-27T10:37:37;5.87;;;3.33;;
11481;SDS011;5797;51.662;6.748;2022-09-27T10:40:29;3.27;;;2.53;;
11481;SDS011;5797;51.662;6.748;2022-09-27T10:43:26;3.60;;;3.23;;
11481;SDS011;5797;51.662;6.748;2022-09-27T10:46:32;3.73;;;3.10;;
11481;SDS011;5797;51.662;6.748;2022-09-27T10:49:44;5.17;;;3.30;;
11481;SDS011;5797;51.662;6.748;2022-09-27T10:53:03;5.47;;;3.30;;
11481;SDS011;5797;51.662;6.748;2022-09-27T10:55:52;4.93;;;2.90;;
11481;SDS011;5797;51.662;6.748;2022-09-27T10:58:39;3.83;;;2.57;;
11481;SDS011;5797;51.662;6.748;2022-09-27T11:01:37;3.10;;;2.57;;
11481;SDS011;5797;51.662;6.748;2022-09-27T11:04:36;3.80;;;2.70;;
11481;SDS011;5797;51.662;6.748;2022-09-27T11:07:25;3.50;;;2.37;;
11481;SDS011;5797;51.662;6.748;2022-09-27T11:10:22;2.83;;;2.37;;
11481;SDS011;5797;51.662;6.748;2022-09-27T11:13:14;5.60;;;2.53;;
11481;SDS011;5797;51.662;6.748;2022-09-27T11:22:51;3.27;;;2.67;;
11481;SDS011;5797;51.662;6.748;2022-09-27T11:26:08;6.13;;;3.10;;
11481;SDS011;5797;51.662;6.748;2022-09-27T11:29:07;4.00;;;2.33;;
11481;SDS011;5797;51.662;6.748;2022-09-27T11:32:24;5.30;;;3.10;;
11481;SDS011;5797;51.662;6.748;2022-09-27T11:38:34;4.23;;;2.73;;
11481;SDS011;5797;51.662;6.748;2022-09-27T11:41:45;3.97;;;3.00;;
11481;SDS011;5797;51.662;6.748;2022-09-27T11:44:51;3.10;;;2.07;;
11481;SDS011;5797;51.662;6.748;2022-09-27T11:48:05;3.43;;;2.47;;
11481;SDS011;5797;51.662;6.748;2022-09-27T11:51:01;3.03;;;2.23;;
11481;SDS011;5797;51.662;6.748;2022-09-27T11:54:01;4.90;;;2.60;;
11481;SDS011;5797;51.662;6.748;2022-09-27T11:56:56;5.27;;;3.07;;
11481;SDS011;5797;51.662;6.748;2022-09-27T11:59:51;6.27;;;2.93;;
11481;SDS011;5797;51.662;6.748;2022-09-27T12:06:10;3.77;;;2.17;;
11481;SDS011;5797;51.662;6.748;2022-09-27T12:09:03;5.83;;;2.73;;
11481;SDS011;5797;51.662;6.748;2022-09-27T12:11:53;3.67;;;2.47;;
11481;SDS011;5797;51.662;6.748;2022-09-27T12:14:44;3.90;;;2.77;;
11481;SDS011;5797;51.662;6.748;2022-09-27T12:17:33;3.10;;;2.37;;
11481;SDS011;5797;51.662;6.748;2022-09-27T12:20:26;5.90;;;2.60;;
11481;SDS011;5797;51.662;6.748;2022-09-27T12:23:17;4.27;;;2.87;;
11481;SDS011;5797;51.662;6.748;2022-09-27T12:26:22;2.67;;;2.30;;
11481;SDS011;5797;51.662;6.748;2022-09-27T12:29:13;2.67;;;2.43;;
11481;SDS011;5797;51.662;6.748;2022-09-27T12:32:04;5.93;;;2.73;;
11481;SDS011;5797;51.662;6.748;2022-09-27T12:34:58;3.47;;;2.27;;
11481;SDS011;5797;51.662;6.748;2022-09-27T12:37:48;4.00;;;2.37;;
11481;SDS011;5797;51.662;6.748;2022-09-27T12:40:39;3.87;;;2.20;;
11481;SDS011;5797;51.662;6.748;2022-09-27T12:43:31;2.73;;;1.87;;
11481;SDS011;5797;51.662;6.748;2022-09-27T12:46:36;4.27;;;2.20;;
11481;SDS011;5797;51.662;6.748;2022-09-27T12:49:33;2.73;;;1.97;;
11481;SDS011;5797;51.662;6.748;2022-09-27T12:52:30;3.93;;;1.90;;
11481;SDS011;5797;51.662;6.748;2022-09-27T12:55:44;3.90;;;2.60;;
11481;SDS011;5797;51.662;6.748;2022-09-27T12:58:46;4.37;;;2.37;;
11481;SDS011;5797;51.662;6.748;2022-09-27T13:01:49;2.90;;;1.70;;
11481;SDS011;5797;51.662;6.748;2022-09-27T13:04:49;3.10;;;1.60;;
11481;SDS011;5797;51.662;6.748;2022-09-27T13:07:45;3.23;;;1.80;;
11481;SDS011;5797;51.662;6.748;2022-09-27T13:10:42;3.27;;;1.50;;
11481;SDS011;5797;51.662;6.748;2022-09-27T13:13:41;2.87;;;1.70;;
11481;SDS011;5797;51.662;6.748;2022-09-27T13:16:30;4.40;;;1.67;;
11481;SDS011;5797;51.662;6.748;2022-09-27T13:19:38;1.90;;;1.70;;
11481;SDS011;5797;51.662;6.748;2022-09-27T13:22:36;1.50;;;1.40;;
11481;SDS011;5797;51.662;6.748;2022-09-27T13:25:48;2.30;;;1.80;;
11481;SDS011;5797;51.662;6.748;2022-09-27T13:29:00;2.40;;;1.80;;
11481;SDS011;5797;51.662;6.748;2022-09-27T13:32:10;2.03;;;1.77;;
11481;SDS011;5797;51.662;6.748;2022-09-27T13:35:25;1.77;;;1.47;;
11481;SDS011;5797;51.662;6.748;2022-09-27T13:38:22;2.07;;;1.50;;
11481;SDS011;5797;51.662;6.748;2022-09-27T13:41:12;2.87;;;1.30;;
11481;SDS011;5797;51.662;6.748;2022-09-27T13:44:14;1.93;;;1.30;;
11481;SDS011;5797;51.662;6.748;2022-09-27T13:47:21;1.20;;;1.10;;
11481;SDS011;5797;51.662;6.748;2022-09-27T13:50:16;2.00;;;1.23;;
11481;SDS011;5797;51.662;6.748;2022-09-27T13:53:16;0.80;;;0.80;;
11481;SDS011;5797;51.662;6.748;2022-09-27T13:56:52;1.90;;;0.93;;
11481;SDS011;5797;51.662;6.748;2022-09-27T13:59:36;1.00;;;0.80;;
11481;SDS011;5797;51.662;6.748;2022-09-27T14:03:27;1.27;;;1.03;;
11481;SDS011;5797;51.662;6.748;2022-09-27T14:06:35;1.27;;;0.90;;
11481;SDS011;5797;51.662;6.748;2022-09-27T14:09:29;1.97;;;0.90;;
11481;SDS011;5797;51.662;6.748;2022-09-27T14:12:32;1.23;;;0.80;;
11481;SDS011;5797;51.662;6.748;2022-09-27T14:15:24;1.87;;;0.67;;
11481;SDS011;5797;51.662;6.748;2022-09-27T14:18:14;1.57;;;0.80;;
11481;SDS011;5797;51.662;6.748;2022-09-27T14:21:10;1.27;;;1.00;;
11481;SDS011;5797;51.662;6.748;2022-09-27T14:24:25;1.33;;;0.90;;
11481;SDS011;5797;51.662;6.748;2022-09-27T14:27:18;0.63;;;0.63;;
11481;SDS011;5797;51.662;6.748;2022-09-27T14:30:13;0.80;;;0.80;;
11481;SDS011;5797;51.662;6.748;2022-09-27T14:33:23;1.97;;;1.10;;
11481;SDS011;5797;51.662;6.748;2022-09-27T14:36:25;1.07;;;1.00;;
11481;SDS011;5797;51.662;6.748;2022-09-27T14:39:31;0.80;;;0.80;;
11481;SDS011;5797;51.662;6.748;2022-09-27T14:42:40;5.90;;;0.87;;
11481;SDS011;5797;51.662;6.748;2022-09-27T14:45:47;1.00;;;0.90;;
11481;SDS011;5797;51.662;6.748;2022-09-27T14:48:37;1.20;;;1.10;;
11481;SDS011;5797;51.662;6.748;2022-09-27T14:51:28;0.90;;;0.77;;
11481;SDS011;5797;51.662;6.748;2022-09-27T14:54:18;1.23;;;0.90;;
11481;SDS011;5797;51.662;6.748;2022-09-27T14:57:07;3.33;;;0.80;;
11481;SDS011;5797;51.662;6.748;2022-09-27T14:59:53;1.10;;;1.00;;
11481;SDS011;5797;51.662;6.748;2022-09-27T15:02:42;1.63;;;0.97;;
11481;SDS011;5797;51.662;6.748;2022-09-27T15:05:30;1.03;;;0.80;;
11481;SDS011;5797;51.662;6.748;2022-09-27T15:08:19;1.20;;;0.73;;
11481;SDS011;5797;51.662;6.748;2022-09-27T15:11:09;1.80;;;1.03;;
11481;SDS011;5797;51.662;6.748;2022-09-27T15:13:56;1.97;;;1.00;;
11481;SDS011;5797;51.662;6.748;2022-09-27T15:16:46;0.83;;;0.80;;
11481;SDS011;5797;51.662;6.748;2022-09-27T15:19:34;5.33;;;2.87;;
11481;SDS011;5797;51.662;6.748;2022-09-27T15:22:22;6.43;;;2.00;;
11481;SDS011;5797;51.662;6.748;2022-09-27T15:25:18;2.63;;;1.60;;
11481;SDS011;5797;51.662;6.748;2022-09-27T15:28:18;1.30;;;0.90;;
11481;SDS011;5797;51.662;6.748;2022-09-27T15:31:05;1.37;;;1.10;;
11481;SDS011;5797;51.662;6.748;2022-09-27T15:33:53;2.63;;;1.33;;
11481;SDS011;5797;51.662;6.748;2022-09-27T15:36:51;6.60;;;3.23;;
11481;SDS011;5797;51.662;6.748;2022-09-27T15:39:40;3.77;;;2.60;;
11481;SDS011;5797;51.662;6.748;2022-09-27T15:42:29;2.93;;;2.00;;
11481;SDS011;5797;51.662;6.748;2022-09-27T15:45:41;2.80;;;1.50;;
11481;SDS011;5797;51.662;6.748;2022-09-27T15:48:35;2.70;;;1.37;;
11481;SDS011;5797;51.662;6.748;2022-09-27T15:51:36;2.63;;;1.40;;
11481;SDS011;5797;51.662;6.748;2022-09-27T15:54:43;1.87;;;0.80;;
11481;SDS011;5797;51.662;6.748;2022-09-27T15:57:32;1.50;;;1.33;;
11481;SDS011;5797;51.662;6.748;2022-09-27T16:00:19;8.30;;;2.07;;
11481;SDS011;5797;51.662;6.748;2022-09-27T16:03:07;4.43;;;1.37;;
11481;SDS011;5797;51.662;6.748;2022-09-27T16:05:55;2.67;;;1.80;;
11481;SDS011;5797;51.662;6.748;2022-09-27T16:08:43;7.40;;;5.07;;
11481;SDS011;5797;51.662;6.748;2022-09-27T16:11:30;2.90;;;2.10;;
11481;SDS011;5797;51.662;6.748;2022-09-27T16:14:19;4.23;;;1.40;;
11481;SDS011;5797;51.662;6.748;2022-09-27T16:17:06;1.40;;;1.30;;
11481;SDS011;5797;51.662;6.748;2022-09-27T16:19:52;3.93;;;1.20;;
11481;SDS011;5797;51.662;6.748;2022-09-27T16:22:39;6.07;;;1.40;;
11481;SDS011;5797;51.662;6.748;2022-09-27T16:25:26;4.03;;;1.53;;
11481;SDS011;5797;51.662;6.748;2022-09-27T16:28:15;2.93;;;1.70;;
11481;SDS011;5797;51.662;6.748;2022-09-27T16:31:05;2.43;;;1.80;;
11481;SDS011;5797;51.662;6.748;2022-09-27T16:33:52;3.77;;;1.50;;
11481;SDS011;5797;51.662;6.748;2022-09-27T16:36:39;3.23;;;1.50;;
11481;SDS011;5797;51.662;6.748;2022-09-27T16:39:26;3.53;;;1.53;;
11481;SDS011;5797;51.662;6.748;2022-09-27T16:42:13;2.40;;;1.70;;
11481;SDS011;5797;51.662;6.748;2022-09-27T16:45:01;2.47;;;1.47;;
11481;SDS011;5797;51.662;6.748;2022-09-27T16:47:55;2.03;;;1.40;;
11481;SDS011;5797;51.662;6.748;2022-09-27T16:50:43;1.73;;;1.43;;
11481;SDS011;5797;51.662;6.748;2022-09-27T16:53:47;3.93;;;1.70;;
11481;SDS011;5797;51.662;6.748;2022-09-27T16:56:34;2.00;;;1.30;;
11481;SDS011;5797;51.662;6.748;2022-09-27T16:59:22;2.67;;;1.70;;
11481;SDS011;5797;51.662;6.748;2022-09-27T17:02:09;4.77;;;1.70;;
11481;SDS011;5797;51.662;6.748;2022-09-27T17:04:58;2.13;;;1.40;;
11481;SDS011;5797;51.662;6.748;2022-09-27T17:07:48;4.50;;;1.63;;
11481;SDS011;5797;51.662;6.748;2022-09-27T17:10:35;2.73;;;1.63;;
11481;SDS011;5797;51.662;6.748;2022-09-27T17:13:23;2.07;;;1.63;;
11481;SDS011;5797;51.662;6.748;2022-09-27T17:16:11;3.23;;;1.60;;
11481;SDS011;5797;51.662;6.748;2022-09-27T17:18:59;2.77;;;1.60;;
11481;SDS011;5797;51.662;6.748;2022-09-27T17:21:48;2.53;;;1.90;;
11481;SDS011;5797;51.662;6.748;2022-09-27T17:24:35;3.17;;;2.10;;
11481;SDS011;5797;51.662;6.748;2022-09-27T17:27:22;4.93;;;1.87;;
11481;SDS011;5797;51.662;6.748;2022-09-27T17:30:17;2.93;;;2.00;;
11481;SDS011;5797;51.662;6.748;2022-09-27T17:33:07;3.50;;;1.87;;
11481;SDS011;5797;51.662;6.748;2022-09-27T17:35:58;1.97;;;1.77;;
11481;SDS011;5797;51.662;6.748;2022-09-27T17:38:47;3.43;;;1.67;;
11481;SDS011;5797;51.662;6.748;2022-09-27T17:41:35;3.47;;;1.87;;
11481;SDS011;5797;51.662;6.748;2022-09-27T17:44:24;2.93;;;1.80;;
11481;SDS011;5797;51.662;6.748;2022-09-27T17:47:12;2.70;;;2.13;;
11481;SDS011;5797;51.662;6.748;2022-09-27T17:50:17;5.23;;;1.83;;
11481;SDS011;5797;51.662;6.748;2022-09-27T17:53:13;3.07;;;1.90;;
11481;SDS011;5797;51.662;6.748;2022-09-27T17:56:01;2.90;;;1.80;;
11481;SDS011;5797;51.662;6.748;2022-09-27T17:58:52;2.77;;;1.53;;
11481;SDS011;5797;51.662;6.748;2022-09-27T18:01:40;3.07;;;1.83;;
11481;SDS011;5797;51.662;6.748;2022-09-27T18:04:28;2.03;;;1.53;;
11481;SDS011;5797;51.662;6.748;2022-09-27T18:07:15;3.70;;;1.83;;